sensor_id;sensor_type;location;lat;lon;timestamp;P1;durP1;ratioP1;P2;durP2;ratioP2
66143;SDS011;52947;50.842;6.084;2023-06-22T00:01:22;8.52;;;5.78;;
66143;SDS011;52947;50.842;6.084;2023-06-22T00:03:52;8.00;;;6.03;;
66143;SDS011;52947;50.842;6.084;2023-06-22T00:06:20;7.72;;;5.20;;
66143;SDS011;52947;50.842;6.084;2023-06-22T00:08:48;8.35;;;5.25;;
66143;SDS011;52947;50.842;6.084;2023-06-22T00:11:16;6.68;;;4.80;;
66143;SDS011;52947;50.842;6.084;2023-06-22T00:13:44;7.47;;;5.28;;
66143;SDS011;52947;50.842;6.084;2023-06-22T00:16:13;7.93;;;5.60;;
66143;SDS011;52947;50.842;6.084;2023-06-22T00:18:41;7.22;;;5.38;;
66143;SDS011;52947;50.842;6.084;2023-06-22T00:21:14;6.72;;;5.10;;
66143;SDS011;52947;50.842;6.084;2023-06-22T00:23:42;8.35;;;5.07;;
66143;SDS011;52947;50.842;6.084;2023-06-22T00:26:10;8.10;;;4.80;;
66143;SDS011;52947;50.842;6.084;2023-06-22T00:28:38;11.50;;;5.43;;
66143;SDS011;52947;50.842;6.084;2023-06-22T00:31:06;7.35;;;4.93;;
66143;SDS011;52947;50.842;6.084;2023-06-22T00:33:34;9.02;;;4.82;;
66143;SDS011;52947;50.842;6.084;2023-06-22T00:36:04;7.03;;;4.78;;
66143;SDS011;52947;50.842;6.084;2023-06-22T00:38:35;8.05;;;4.38;;
66143;SDS011;52947;50.842;6.084;2023-06-22T00:41:07;5.88;;;4.18;;
66143;SDS011;52947;50.842;6.084;2023-06-22T00:43:35;8.20;;;5.05;;
66143;SDS011;52947;50.842;6.084;2023-06-22T00:46:03;5.93;;;4.50;;
66143;SDS011;52947;50.842;6.084;2023-06-22T00:48:31;7.43;;;5.38;;
66143;SDS011;52947;50.842;6.084;2023-06-22T00:50:59;7.47;;;4.75;;
66143;SDS011;52947;50.842;6.084;2023-06-22T00:53:27;7.23;;;4.97;;
66143;SDS011;52947;50.842;6.084;2023-06-22T00:55:57;6.97;;;4.57;;
66143;SDS011;52947;50.842;6.084;2023-06-22T00:58:27;7.53;;;4.50;;
66143;SDS011;52947;50.842;6.084;2023-06-22T01:00:54;9.95;;;4.80;;
66143;SDS011;52947;50.842;6.084;2023-06-22T01:03:26;5.47;;;4.03;;
66143;SDS011;52947;50.842;6.084;2023-06-22T01:05:55;9.98;;;4.60;;
66143;SDS011;52947;50.842;6.084;2023-06-22T01:08:39;7.88;;;4.80;;
66143;SDS011;52947;50.842;6.084;2023-06-22T01:11:16;9.70;;;4.72;;
66143;SDS011;52947;50.842;6.084;2023-06-22T01:13:50;8.52;;;5.15;;
66143;SDS011;52947;50.842;6.084;2023-06-22T01:16:26;7.57;;;5.10;;
66143;SDS011;52947;50.842;6.084;2023-06-22T01:18:57;4.72;;;3.75;;
66143;SDS011;52947;50.842;6.084;2023-06-22T01:21:28;7.05;;;3.90;;
66143;SDS011;52947;50.842;6.084;2023-06-22T01:24:02;8.30;;;4.53;;
66143;SDS011;52947;50.842;6.084;2023-06-22T01:26:41;8.32;;;5.10;;
66143;SDS011;52947;50.842;6.084;2023-06-22T01:29:12;6.05;;;4.18;;
66143;SDS011;52947;50.842;6.084;2023-06-22T01:31:42;6.45;;;4.63;;
66143;SDS011;52947;50.842;6.084;2023-06-22T01:34:11;7.90;;;4.90;;
66143;SDS011;52947;50.842;6.084;2023-06-22T01:36:40;7.32;;;4.35;;
66143;SDS011;52947;50.842;6.084;2023-06-22T01:39:10;5.50;;;4.05;;
66143;SDS011;52947;50.842;6.084;2023-06-22T01:41:40;6.43;;;4.43;;
66143;SDS011;52947;50.842;6.084;2023-06-22T01:44:11;5.88;;;4.50;;
66143;SDS011;52947;50.842;6.084;2023-06-22T01:46:41;5.35;;;3.67;;
66143;SDS011;52947;50.842;6.084;2023-06-22T01:49:09;5.45;;;4.07;;
66143;SDS011;52947;50.842;6.084;2023-06-22T01:51:37;6.67;;;4.60;;
66143;SDS011;52947;50.842;6.084;2023-06-22T01:54:05;10.30;;;4.75;;
66143;SDS011;52947;50.842;6.084;2023-06-22T01:56:34;5.22;;;3.85;;
66143;SDS011;52947;50.842;6.084;2023-06-22T01:59:04;6.40;;;4.30;;
66143;SDS011;52947;50.842;6.084;2023-06-22T02:01:41;5.75;;;3.75;;
66143;SDS011;52947;50.842;6.084;2023-06-22T02:04:12;8.05;;;4.35;;
66143;SDS011;52947;50.842;6.084;2023-06-22T02:06:45;7.45;;;4.28;;
66143;SDS011;52947;50.842;6.084;2023-06-22T02:09:16;7.40;;;4.53;;
66143;SDS011;52947;50.842;6.084;2023-06-22T02:11:48;8.43;;;5.30;;
66143;SDS011;52947;50.842;6.084;2023-06-22T02:14:22;6.15;;;4.80;;
66143;SDS011;52947;50.842;6.084;2023-06-22T02:16:52;9.52;;;5.28;;
66143;SDS011;52947;50.842;6.084;2023-06-22T02:19:22;10.68;;;5.78;;
66143;SDS011;52947;50.842;6.084;2023-06-22T02:21:51;8.63;;;5.68;;
66143;SDS011;52947;50.842;6.084;2023-06-22T02:24:19;9.55;;;5.32;;
66143;SDS011;52947;50.842;6.084;2023-06-22T02:26:50;9.82;;;5.82;;
66143;SDS011;52947;50.842;6.084;2023-06-22T02:29:18;10.70;;;6.93;;
66143;SDS011;52947;50.842;6.084;2023-06-22T02:31:45;9.60;;;6.88;;
66143;SDS011;52947;50.842;6.084;2023-06-22T02:34:15;10.35;;;7.47;;
66143;SDS011;52947;50.842;6.084;2023-06-22T02:36:45;9.05;;;6.88;;
66143;SDS011;52947;50.842;6.084;2023-06-22T02:39:18;10.00;;;6.47;;
66143;SDS011;52947;50.842;6.084;2023-06-22T02:41:48;11.35;;;6.38;;
66143;SDS011;52947;50.842;6.084;2023-06-22T02:44:16;10.88;;;6.75;;
66143;SDS011;52947;50.842;6.084;2023-06-22T02:46:47;9.93;;;7.15;;
66143;SDS011;52947;50.842;6.084;2023-06-22T02:49:17;8.38;;;6.82;;
66143;SDS011;52947;50.842;6.084;2023-06-22T02:51:46;11.70;;;7.85;;
66143;SDS011;52947;50.842;6.084;2023-06-22T02:54:18;11.88;;;7.15;;
66143;SDS011;52947;50.842;6.084;2023-06-22T02:56:50;10.35;;;7.18;;
66143;SDS011;52947;50.842;6.084;2023-06-22T02:59:19;12.48;;;8.02;;
66143;SDS011;52947;50.842;6.084;2023-06-22T03:01:53;7.75;;;5.28;;
66143;SDS011;52947;50.842;6.084;2023-06-22T03:04:26;14.70;;;6.90;;
66143;SDS011;52947;50.842;6.084;2023-06-22T03:06:54;10.00;;;6.60;;
66143;SDS011;52947;50.842;6.084;2023-06-22T03:09:22;15.90;;;6.88;;
66143;SDS011;52947;50.842;6.084;2023-06-22T03:11:50;11.85;;;6.70;;
66143;SDS011;52947;50.842;6.084;2023-06-22T03:14:19;10.38;;;6.88;;
66143;SDS011;52947;50.842;6.084;2023-06-22T03:16:50;13.73;;;8.27;;
66143;SDS011;52947;50.842;6.084;2023-06-22T03:19:19;11.50;;;7.93;;
66143;SDS011;52947;50.842;6.084;2023-06-22T03:21:49;10.43;;;5.90;;
66143;SDS011;52947;50.842;6.084;2023-06-22T03:24:18;15.25;;;7.63;;
66143;SDS011;52947;50.842;6.084;2023-06-22T03:26:46;14.80;;;7.78;;
66143;SDS011;52947;50.842;6.084;2023-06-22T03:29:14;10.38;;;7.30;;
66143;SDS011;52947;50.842;6.084;2023-06-22T03:31:44;11.93;;;7.45;;
66143;SDS011;52947;50.842;6.084;2023-06-22T03:34:13;14.63;;;7.32;;
66143;SDS011;52947;50.842;6.084;2023-06-22T03:36:42;12.88;;;6.50;;
66143;SDS011;52947;50.842;6.084;2023-06-22T03:39:13;9.95;;;6.20;;
66143;SDS011;52947;50.842;6.084;2023-06-22T03:41:41;14.65;;;7.13;;
66143;SDS011;52947;50.842;6.084;2023-06-22T03:44:08;12.52;;;6.75;;
66143;SDS011;52947;50.842;6.084;2023-06-22T03:46:38;12.23;;;6.95;;
66143;SDS011;52947;50.842;6.084;2023-06-22T03:49:06;11.27;;;7.03;;
66143;SDS011;52947;50.842;6.084;2023-06-22T03:51:34;11.90;;;6.38;;
66143;SDS011;52947;50.842;6.084;2023-06-22T03:54:02;20.90;;;7.53;;
66143;SDS011;52947;50.842;6.084;2023-06-22T03:56:31;10.77;;;7.55;;
66143;SDS011;52947;50.842;6.084;2023-06-22T03:58:59;11.93;;;6.20;;
66143;SDS011;52947;50.842;6.084;2023-06-22T04:01:27;10.05;;;6.80;;
66143;SDS011;52947;50.842;6.084;2023-06-22T04:03:55;9.70;;;6.60;;
66143;SDS011;52947;50.842;6.084;2023-06-22T04:06:23;9.02;;;6.75;;
66143;SDS011;52947;50.842;6.084;2023-06-22T04:08:51;10.48;;;7.18;;
66143;SDS011;52947;50.842;6.084;2023-06-22T04:11:19;11.15;;;5.47;;
66143;SDS011;52947;50.842;6.084;2023-06-22T04:13:48;11.32;;;5.50;;
66143;SDS011;52947;50.842;6.084;2023-06-22T04:16:17;9.48;;;6.80;;
66143;SDS011;52947;50.842;6.084;2023-06-22T04:18:45;9.38;;;5.78;;
66143;SDS011;52947;50.842;6.084;2023-06-22T04:21:13;10.95;;;6.93;;
66143;SDS011;52947;50.842;6.084;2023-06-22T04:23:41;10.60;;;7.32;;
66143;SDS011;52947;50.842;6.084;2023-06-22T04:28:38;12.13;;;6.35;;
66143;SDS011;52947;50.842;6.084;2023-06-22T04:31:07;9.23;;;6.57;;
66143;SDS011;52947;50.842;6.084;2023-06-22T04:33:35;10.52;;;6.25;;
66143;SDS011;52947;50.842;6.084;2023-06-22T04:36:07;13.27;;;7.22;;
66143;SDS011;52947;50.842;6.084;2023-06-22T04:38:35;10.82;;;6.43;;
66143;SDS011;52947;50.842;6.084;2023-06-22T04:41:02;12.25;;;7.43;;
66143;SDS011;52947;50.842;6.084;2023-06-22T04:43:30;12.80;;;7.88;;
66143;SDS011;52947;50.842;6.084;2023-06-22T04:45:58;12.50;;;6.90;;
66143;SDS011;52947;50.842;6.084;2023-06-22T04:48:31;11.05;;;6.13;;
66143;SDS011;52947;50.842;6.084;2023-06-22T04:51:00;8.93;;;5.72;;
66143;SDS011;52947;50.842;6.084;2023-06-22T04:53:30;10.27;;;7.03;;
66143;SDS011;52947;50.842;6.084;2023-06-22T04:55:58;9.60;;;5.40;;
66143;SDS011;52947;50.842;6.084;2023-06-22T04:58:26;9.60;;;6.63;;
66143;SDS011;52947;50.842;6.084;2023-06-22T05:00:55;10.68;;;7.13;;
66143;SDS011;52947;50.842;6.084;2023-06-22T05:03:24;10.13;;;6.85;;
66143;SDS011;52947;50.842;6.084;2023-06-22T05:05:55;11.00;;;6.82;;
66143;SDS011;52947;50.842;6.084;2023-06-22T05:08:23;11.38;;;7.32;;
66143;SDS011;52947;50.842;6.084;2023-06-22T05:10:55;8.43;;;6.03;;
66143;SDS011;52947;50.842;6.084;2023-06-22T05:13:31;13.32;;;7.40;;
66143;SDS011;52947;50.842;6.084;2023-06-22T05:15:59;13.83;;;7.37;;
66143;SDS011;52947;50.842;6.084;2023-06-22T05:18:29;24.92;;;9.30;;
66143;SDS011;52947;50.842;6.084;2023-06-22T05:20:59;14.25;;;6.43;;
66143;SDS011;52947;50.842;6.084;2023-06-22T05:23:27;11.95;;;8.15;;
66143;SDS011;52947;50.842;6.084;2023-06-22T05:25:55;12.23;;;6.95;;
66143;SDS011;52947;50.842;6.084;2023-06-22T05:30:52;18.23;;;8.50;;
66143;SDS011;52947;50.842;6.084;2023-06-22T05:33:20;17.30;;;7.10;;
66143;SDS011;52947;50.842;6.084;2023-06-22T05:35:48;14.80;;;7.30;;
66143;SDS011;52947;50.842;6.084;2023-06-22T05:38:18;18.27;;;7.00;;
66143;SDS011;52947;50.842;6.084;2023-06-22T05:40:46;11.82;;;5.95;;
66143;SDS011;52947;50.842;6.084;2023-06-22T05:43:14;9.20;;;5.68;;
66143;SDS011;52947;50.842;6.084;2023-06-22T05:45:42;8.80;;;6.00;;
66143;SDS011;52947;50.842;6.084;2023-06-22T05:48:10;8.82;;;5.25;;
66143;SDS011;52947;50.842;6.084;2023-06-22T05:50:38;11.45;;;5.72;;
66143;SDS011;52947;50.842;6.084;2023-06-22T05:53:06;9.77;;;6.83;;
66143;SDS011;52947;50.842;6.084;2023-06-22T05:55:36;10.05;;;6.32;;
66143;SDS011;52947;50.842;6.084;2023-06-22T05:58:04;12.82;;;7.20;;
66143;SDS011;52947;50.842;6.084;2023-06-22T06:00:31;18.58;;;8.20;;
66143;SDS011;52947;50.842;6.084;2023-06-22T06:03:00;12.57;;;8.40;;
66143;SDS011;52947;50.842;6.084;2023-06-22T06:05:30;14.63;;;8.50;;
66143;SDS011;52947;50.842;6.084;2023-06-22T06:07:58;13.88;;;6.68;;
66143;SDS011;52947;50.842;6.084;2023-06-22T06:10:27;13.90;;;9.00;;
66143;SDS011;52947;50.842;6.084;2023-06-22T06:12:58;9.68;;;6.25;;
66143;SDS011;52947;50.842;6.084;2023-06-22T06:15:28;12.23;;;6.53;;
66143;SDS011;52947;50.842;6.084;2023-06-22T06:17:56;11.48;;;6.10;;
66143;SDS011;52947;50.842;6.084;2023-06-22T06:20:25;10.48;;;6.20;;
66143;SDS011;52947;50.842;6.084;2023-06-22T06:22:55;9.98;;;5.80;;
66143;SDS011;52947;50.842;6.084;2023-06-22T06:25:23;13.15;;;7.50;;
66143;SDS011;52947;50.842;6.084;2023-06-22T06:30:22;17.40;;;8.40;;
66143;SDS011;52947;50.842;6.084;2023-06-22T06:32:50;14.98;;;9.35;;
66143;SDS011;52947;50.842;6.084;2023-06-22T06:35:18;21.42;;;9.25;;
66143;SDS011;52947;50.842;6.084;2023-06-22T06:37:47;11.95;;;8.63;;
66143;SDS011;52947;50.842;6.084;2023-06-22T06:40:16;12.15;;;7.90;;
66143;SDS011;52947;50.842;6.084;2023-06-22T06:42:46;13.90;;;8.88;;
66143;SDS011;52947;50.842;6.084;2023-06-22T06:45:16;13.23;;;8.00;;
66143;SDS011;52947;50.842;6.084;2023-06-22T06:47:46;16.35;;;9.48;;
66143;SDS011;52947;50.842;6.084;2023-06-22T06:50:15;13.43;;;8.65;;
66143;SDS011;52947;50.842;6.084;2023-06-22T06:52:43;18.95;;;10.57;;
66143;SDS011;52947;50.842;6.084;2023-06-22T06:55:11;11.57;;;7.97;;
66143;SDS011;52947;50.842;6.084;2023-06-22T06:57:40;14.15;;;8.70;;
66143;SDS011;52947;50.842;6.084;2023-06-22T07:00:10;11.77;;;8.10;;
66143;SDS011;52947;50.842;6.084;2023-06-22T07:02:41;18.70;;;9.63;;
66143;SDS011;52947;50.842;6.084;2023-06-22T07:05:11;17.63;;;8.88;;
66143;SDS011;52947;50.842;6.084;2023-06-22T07:07:39;10.45;;;6.57;;
66143;SDS011;52947;50.842;6.084;2023-06-22T07:10:10;13.80;;;8.43;;
66143;SDS011;52947;50.842;6.084;2023-06-22T07:12:38;11.15;;;8.48;;
66143;SDS011;52947;50.842;6.084;2023-06-22T07:15:06;13.43;;;8.33;;
66143;SDS011;52947;50.842;6.084;2023-06-22T07:17:35;11.60;;;7.80;;
66143;SDS011;52947;50.842;6.084;2023-06-22T07:20:04;19.52;;;7.47;;
66143;SDS011;52947;50.842;6.084;2023-06-22T07:22:38;13.90;;;8.60;;
66143;SDS011;52947;50.842;6.084;2023-06-22T07:25:07;15.02;;;7.63;;
66143;SDS011;52947;50.842;6.084;2023-06-22T07:27:36;11.45;;;7.95;;
66143;SDS011;52947;50.842;6.084;2023-06-22T07:30:06;15.48;;;7.40;;
66143;SDS011;52947;50.842;6.084;2023-06-22T07:32:35;13.85;;;7.22;;
66143;SDS011;52947;50.842;6.084;2023-06-22T07:35:03;12.90;;;8.75;;
66143;SDS011;52947;50.842;6.084;2023-06-22T07:37:32;12.05;;;8.32;;
66143;SDS011;52947;50.842;6.084;2023-06-22T07:40:03;16.58;;;9.00;;
66143;SDS011;52947;50.842;6.084;2023-06-22T07:42:33;14.43;;;7.30;;
66143;SDS011;52947;50.842;6.084;2023-06-22T07:45:03;12.68;;;7.60;;
66143;SDS011;52947;50.842;6.084;2023-06-22T07:47:32;12.95;;;7.22;;
66143;SDS011;52947;50.842;6.084;2023-06-22T07:50:02;11.90;;;6.95;;
66143;SDS011;52947;50.842;6.084;2023-06-22T07:52:31;11.35;;;7.60;;
66143;SDS011;52947;50.842;6.084;2023-06-22T07:54:59;9.63;;;6.95;;
66143;SDS011;52947;50.842;6.084;2023-06-22T07:57:30;13.88;;;7.78;;
66143;SDS011;52947;50.842;6.084;2023-06-22T08:00:01;11.63;;;6.75;;
66143;SDS011;52947;50.842;6.084;2023-06-22T08:02:37;10.27;;;6.68;;
66143;SDS011;52947;50.842;6.084;2023-06-22T08:07:47;12.98;;;8.48;;
66143;SDS011;52947;50.842;6.084;2023-06-22T08:10:15;16.00;;;9.32;;
66143;SDS011;52947;50.842;6.084;2023-06-22T08:12:45;14.77;;;8.02;;
66143;SDS011;52947;50.842;6.084;2023-06-22T08:15:13;11.35;;;8.20;;
66143;SDS011;52947;50.842;6.084;2023-06-22T08:17:40;10.50;;;8.13;;
66143;SDS011;52947;50.842;6.084;2023-06-22T08:20:09;13.27;;;7.35;;
66143;SDS011;52947;50.842;6.084;2023-06-22T08:22:39;11.88;;;7.47;;
66143;SDS011;52947;50.842;6.084;2023-06-22T08:27:36;12.73;;;9.15;;
66143;SDS011;52947;50.842;6.084;2023-06-22T08:30:06;14.65;;;9.68;;
66143;SDS011;52947;50.842;6.084;2023-06-22T08:32:35;11.75;;;8.13;;
66143;SDS011;52947;50.842;6.084;2023-06-22T08:35:03;16.38;;;9.23;;
66143;SDS011;52947;50.842;6.084;2023-06-22T08:37:33;10.93;;;8.40;;
66143;SDS011;52947;50.842;6.084;2023-06-22T08:40:03;17.65;;;9.45;;
66143;SDS011;52947;50.842;6.084;2023-06-22T08:42:34;12.45;;;8.45;;
66143;SDS011;52947;50.842;6.084;2023-06-22T08:45:02;12.65;;;9.32;;
66143;SDS011;52947;50.842;6.084;2023-06-22T08:47:31;16.38;;;7.90;;
66143;SDS011;52947;50.842;6.084;2023-06-22T08:49:59;10.07;;;7.68;;
66143;SDS011;52947;50.842;6.084;2023-06-22T08:52:29;13.98;;;9.13;;
66143;SDS011;52947;50.842;6.084;2023-06-22T08:54:57;10.70;;;8.75;;
66143;SDS011;52947;50.842;6.084;2023-06-22T08:57:25;15.48;;;8.77;;
66143;SDS011;52947;50.842;6.084;2023-06-22T08:59:53;15.40;;;8.38;;
66143;SDS011;52947;50.842;6.084;2023-06-22T09:02:25;16.50;;;8.20;;
66143;SDS011;52947;50.842;6.084;2023-06-22T09:05:02;16.65;;;8.75;;
66143;SDS011;52947;50.842;6.084;2023-06-22T09:07:31;14.30;;;8.93;;
66143;SDS011;52947;50.842;6.084;2023-06-22T09:10:00;14.38;;;8.85;;
66143;SDS011;52947;50.842;6.084;2023-06-22T09:12:31;17.58;;;10.02;;
66143;SDS011;52947;50.842;6.084;2023-06-22T09:17:28;18.02;;;10.02;;
66143;SDS011;52947;50.842;6.084;2023-06-22T09:19:56;11.93;;;9.23;;
66143;SDS011;52947;50.842;6.084;2023-06-22T09:22:26;12.63;;;9.50;;
66143;SDS011;52947;50.842;6.084;2023-06-22T09:24:55;13.80;;;8.95;;
66143;SDS011;52947;50.842;6.084;2023-06-22T09:27:23;16.23;;;9.07;;
66143;SDS011;52947;50.842;6.084;2023-06-22T09:29:51;12.63;;;9.88;;
66143;SDS011;52947;50.842;6.084;2023-06-22T09:32:19;15.77;;;9.27;;
66143;SDS011;52947;50.842;6.084;2023-06-22T09:34:47;20.37;;;11.20;;
66143;SDS011;52947;50.842;6.084;2023-06-22T09:37:15;12.18;;;9.35;;
66143;SDS011;52947;50.842;6.084;2023-06-22T09:39:44;14.27;;;9.43;;
66143;SDS011;52947;50.842;6.084;2023-06-22T09:42:12;15.07;;;9.50;;
66143;SDS011;52947;50.842;6.084;2023-06-22T09:44:40;12.68;;;8.65;;
66143;SDS011;52947;50.842;6.084;2023-06-22T09:47:08;19.60;;;10.32;;
66143;SDS011;52947;50.842;6.084;2023-06-22T09:49:36;13.60;;;9.18;;
66143;SDS011;52947;50.842;6.084;2023-06-22T09:52:14;14.77;;;10.52;;
66143;SDS011;52947;50.842;6.084;2023-06-22T09:54:42;14.87;;;8.70;;
66143;SDS011;52947;50.842;6.084;2023-06-22T09:57:11;17.40;;;10.40;;
66143;SDS011;52947;50.842;6.084;2023-06-22T09:59:39;20.70;;;10.13;;
66143;SDS011;52947;50.842;6.084;2023-06-22T10:02:07;17.17;;;10.40;;
66143;SDS011;52947;50.842;6.084;2023-06-22T10:04:35;14.85;;;9.77;;
66143;SDS011;52947;50.842;6.084;2023-06-22T10:07:04;12.10;;;9.05;;
66143;SDS011;52947;50.842;6.084;2023-06-22T10:09:32;15.68;;;9.00;;
66143;SDS011;52947;50.842;6.084;2023-06-22T10:12:00;21.43;;;10.50;;
66143;SDS011;52947;50.842;6.084;2023-06-22T10:14:29;11.52;;;9.50;;
66143;SDS011;52947;50.842;6.084;2023-06-22T10:16:57;14.98;;;10.10;;
66143;SDS011;52947;50.842;6.084;2023-06-22T10:19:25;19.65;;;10.65;;
66143;SDS011;52947;50.842;6.084;2023-06-22T10:21:53;13.03;;;8.87;;
66143;SDS011;52947;50.842;6.084;2023-06-22T10:24:21;19.45;;;10.57;;
66143;SDS011;52947;50.842;6.084;2023-06-22T10:26:49;16.27;;;11.13;;
66143;SDS011;52947;50.842;6.084;2023-06-22T10:29:17;13.30;;;10.73;;
66143;SDS011;52947;50.842;6.084;2023-06-22T10:31:47;15.32;;;10.20;;
66143;SDS011;52947;50.842;6.084;2023-06-22T10:34:15;16.77;;;11.25;;
66143;SDS011;52947;50.842;6.084;2023-06-22T10:36:43;14.45;;;10.25;;
66143;SDS011;52947;50.842;6.084;2023-06-22T10:39:13;15.57;;;11.23;;
66143;SDS011;52947;50.842;6.084;2023-06-22T10:41:42;18.55;;;12.13;;
66143;SDS011;52947;50.842;6.084;2023-06-22T10:44:10;18.13;;;12.70;;
66143;SDS011;52947;50.842;6.084;2023-06-22T10:46:38;29.10;;;11.82;;
66143;SDS011;52947;50.842;6.084;2023-06-22T10:49:08;22.10;;;12.60;;
66143;SDS011;52947;50.842;6.084;2023-06-22T10:51:35;18.58;;;14.20;;
66143;SDS011;52947;50.842;6.084;2023-06-22T10:54:03;22.30;;;15.38;;
66143;SDS011;52947;50.842;6.084;2023-06-22T10:56:31;18.75;;;14.90;;
66143;SDS011;52947;50.842;6.084;2023-06-22T10:59:00;20.50;;;17.02;;
66143;SDS011;52947;50.842;6.084;2023-06-22T11:01:28;20.05;;;14.45;;
66143;SDS011;52947;50.842;6.084;2023-06-22T11:04:03;22.02;;;15.48;;
66143;SDS011;52947;50.842;6.084;2023-06-22T11:06:33;21.00;;;15.23;;
66143;SDS011;52947;50.842;6.084;2023-06-22T11:09:01;21.08;;;16.75;;
66143;SDS011;52947;50.842;6.084;2023-06-22T11:11:49;18.73;;;15.45;;
66143;SDS011;52947;50.842;6.084;2023-06-22T11:14:20;24.75;;;16.20;;
66143;SDS011;52947;50.842;6.084;2023-06-22T11:16:48;19.35;;;16.50;;
66143;SDS011;52947;50.842;6.084;2023-06-22T11:19:16;21.73;;;15.32;;
66143;SDS011;52947;50.842;6.084;2023-06-22T11:21:46;21.50;;;15.27;;
66143;SDS011;52947;50.842;6.084;2023-06-22T11:24:14;21.08;;;16.75;;
66143;SDS011;52947;50.842;6.084;2023-06-22T11:26:42;20.05;;;16.67;;
66143;SDS011;52947;50.842;6.084;2023-06-22T11:29:10;19.73;;;15.18;;
66143;SDS011;52947;50.842;6.084;2023-06-22T11:31:57;20.77;;;16.67;;
66143;SDS011;52947;50.842;6.084;2023-06-22T11:34:25;19.90;;;13.77;;
66143;SDS011;52947;50.842;6.084;2023-06-22T11:36:55;18.13;;;13.30;;
66143;SDS011;52947;50.842;6.084;2023-06-22T11:39:23;16.95;;;14.68;;
66143;SDS011;52947;50.842;6.084;2023-06-22T11:42:06;16.75;;;13.02;;
66143;SDS011;52947;50.842;6.084;2023-06-22T11:47:03;16.20;;;12.93;;
66143;SDS011;52947;50.842;6.084;2023-06-22T11:49:31;17.15;;;13.10;;
66143;SDS011;52947;50.842;6.084;2023-06-22T11:52:00;16.65;;;12.07;;
66143;SDS011;52947;50.842;6.084;2023-06-22T11:54:28;17.50;;;13.98;;
66143;SDS011;52947;50.842;6.084;2023-06-22T11:56:56;14.20;;;12.30;;
66143;SDS011;52947;50.842;6.084;2023-06-22T11:59:24;20.33;;;13.23;;
66143;SDS011;52947;50.842;6.084;2023-06-22T12:01:52;18.38;;;12.73;;
66143;SDS011;52947;50.842;6.084;2023-06-22T12:04:20;16.52;;;13.57;;
66143;SDS011;52947;50.842;6.084;2023-06-22T12:06:48;18.87;;;14.27;;
66143;SDS011;52947;50.842;6.084;2023-06-22T12:09:17;14.77;;;11.82;;
66143;SDS011;52947;50.842;6.084;2023-06-22T12:11:45;13.95;;;11.00;;
66143;SDS011;52947;50.842;6.084;2023-06-22T12:14:13;15.50;;;12.13;;
66143;SDS011;52947;50.842;6.084;2023-06-22T12:16:41;15.77;;;12.20;;
66143;SDS011;52947;50.842;6.084;2023-06-22T12:19:10;16.42;;;11.48;;
66143;SDS011;52947;50.842;6.084;2023-06-22T12:21:38;13.88;;;11.48;;
66143;SDS011;52947;50.842;6.084;2023-06-22T12:24:07;16.20;;;12.10;;
66143;SDS011;52947;50.842;6.084;2023-06-22T12:26:36;14.73;;;11.50;;
66143;SDS011;52947;50.842;6.084;2023-06-22T12:29:04;13.43;;;11.43;;
66143;SDS011;52947;50.842;6.084;2023-06-22T12:31:32;13.25;;;11.85;;
66143;SDS011;52947;50.842;6.084;2023-06-22T12:34:00;13.60;;;11.13;;
66143;SDS011;52947;50.842;6.084;2023-06-22T12:36:28;14.38;;;10.63;;
66143;SDS011;52947;50.842;6.084;2023-06-22T12:38:56;15.10;;;9.95;;
66143;SDS011;52947;50.842;6.084;2023-06-22T12:41:24;13.63;;;9.43;;
66143;SDS011;52947;50.842;6.084;2023-06-22T12:43:54;15.98;;;9.10;;
66143;SDS011;52947;50.842;6.084;2023-06-22T12:46:22;11.88;;;9.85;;
66143;SDS011;52947;50.842;6.084;2023-06-22T12:48:50;14.90;;;10.87;;
66143;SDS011;52947;50.842;6.084;2023-06-22T12:51:21;15.45;;;9.98;;
66143;SDS011;52947;50.842;6.084;2023-06-22T12:53:49;13.55;;;10.77;;
66143;SDS011;52947;50.842;6.084;2023-06-22T12:56:17;15.43;;;11.67;;
66143;SDS011;52947;50.842;6.084;2023-06-22T12:58:45;14.30;;;11.13;;
66143;SDS011;52947;50.842;6.084;2023-06-22T13:01:14;12.27;;;11.00;;
66143;SDS011;52947;50.842;6.084;2023-06-22T13:03:44;17.25;;;12.15;;
66143;SDS011;52947;50.842;6.084;2023-06-22T13:06:12;18.93;;;11.13;;
66143;SDS011;52947;50.842;6.084;2023-06-22T13:08:40;18.40;;;12.35;;
66143;SDS011;52947;50.842;6.084;2023-06-22T13:11:11;15.40;;;11.52;;
66143;SDS011;52947;50.842;6.084;2023-06-22T13:13:40;16.58;;;11.25;;
66143;SDS011;52947;50.842;6.084;2023-06-22T13:16:08;15.30;;;12.48;;
66143;SDS011;52947;50.842;6.084;2023-06-22T13:18:37;20.45;;;11.80;;
66143;SDS011;52947;50.842;6.084;2023-06-22T13:21:05;16.05;;;13.00;;
66143;SDS011;52947;50.842;6.084;2023-06-22T13:23:33;21.05;;;16.48;;
66143;SDS011;52947;50.842;6.084;2023-06-22T13:26:01;22.02;;;16.42;;
66143;SDS011;52947;50.842;6.084;2023-06-22T13:28:29;18.83;;;15.18;;
66143;SDS011;52947;50.842;6.084;2023-06-22T13:30:57;19.27;;;17.10;;
66143;SDS011;52947;50.842;6.084;2023-06-22T13:33:25;21.40;;;16.00;;
66143;SDS011;52947;50.842;6.084;2023-06-22T13:35:54;24.67;;;19.13;;
66143;SDS011;52947;50.842;6.084;2023-06-22T13:38:22;22.25;;;16.88;;
66143;SDS011;52947;50.842;6.084;2023-06-22T13:40:50;24.40;;;18.17;;
66143;SDS011;52947;50.842;6.084;2023-06-22T13:43:18;22.70;;;17.77;;
66143;SDS011;52947;50.842;6.084;2023-06-22T13:45:46;20.15;;;16.98;;
66143;SDS011;52947;50.842;6.084;2023-06-22T13:48:14;23.35;;;17.17;;
66143;SDS011;52947;50.842;6.084;2023-06-22T13:50:42;24.05;;;17.58;;
66143;SDS011;52947;50.842;6.084;2023-06-22T13:53:12;25.95;;;18.55;;
66143;SDS011;52947;50.842;6.084;2023-06-22T13:55:39;23.55;;;19.38;;
66143;SDS011;52947;50.842;6.084;2023-06-22T13:58:07;24.42;;;19.25;;
66143;SDS011;52947;50.842;6.084;2023-06-22T14:00:35;24.67;;;19.10;;
66143;SDS011;52947;50.842;6.084;2023-06-22T14:03:04;27.70;;;21.30;;
66143;SDS011;52947;50.842;6.084;2023-06-22T14:05:32;24.63;;;20.38;;
66143;SDS011;52947;50.842;6.084;2023-06-22T14:07:59;27.15;;;21.15;;
66143;SDS011;52947;50.842;6.084;2023-06-22T14:10:29;26.80;;;21.05;;
66143;SDS011;52947;50.842;6.084;2023-06-22T14:12:57;25.88;;;21.40;;
66143;SDS011;52947;50.842;6.084;2023-06-22T14:15:26;27.83;;;23.35;;
66143;SDS011;52947;50.842;6.084;2023-06-22T14:17:54;24.48;;;20.17;;
66143;SDS011;52947;50.842;6.084;2023-06-22T14:20:22;30.45;;;23.20;;
66143;SDS011;52947;50.842;6.084;2023-06-22T14:22:50;30.95;;;22.35;;
66143;SDS011;52947;50.842;6.084;2023-06-22T14:25:18;27.42;;;21.90;;
66143;SDS011;52947;50.842;6.084;2023-06-22T14:27:47;27.75;;;21.05;;
66143;SDS011;52947;50.842;6.084;2023-06-22T14:30:15;26.83;;;23.48;;
66143;SDS011;52947;50.842;6.084;2023-06-22T14:32:43;29.27;;;22.23;;
66143;SDS011;52947;50.842;6.084;2023-06-22T14:35:12;28.30;;;21.83;;
66143;SDS011;52947;50.842;6.084;2023-06-22T14:37:40;29.35;;;21.20;;
66143;SDS011;52947;50.842;6.084;2023-06-22T14:40:08;34.20;;;24.05;;
66143;SDS011;52947;50.842;6.084;2023-06-22T14:42:36;33.45;;;28.27;;
66143;SDS011;52947;50.842;6.084;2023-06-22T14:45:06;36.83;;;28.70;;
66143;SDS011;52947;50.842;6.084;2023-06-22T14:47:35;46.63;;;33.95;;
66143;SDS011;52947;50.842;6.084;2023-06-22T14:50:03;38.90;;;30.52;;
66143;SDS011;52947;50.842;6.084;2023-06-22T14:52:31;49.58;;;36.33;;
66143;SDS011;52947;50.842;6.084;2023-06-22T14:54:59;47.42;;;38.60;;
66143;SDS011;52947;50.842;6.084;2023-06-22T14:57:27;48.22;;;37.88;;
66143;SDS011;52947;50.842;6.084;2023-06-22T14:59:55;50.72;;;40.38;;
66143;SDS011;52947;50.842;6.084;2023-06-22T15:02:24;48.97;;;38.47;;